<?xml version="1.0" encoding="UTF-8" standalone="no" ?>
<gpx xmlns="http://www.topografix.com/GPX/1/1" xmlns:xsi="http://www.w3.org/2001/XMLSchema-instance" xsi:schemaLocation="http://www.topografix.com/GPX/1/1 http://www.topografix.com/GPX/1/1/gpx.xsd" version="1.1" creator="VisuGPX - https://www.visugpx.com">
  <metadata>
    <name>Flamarens 10.9 km</name>
  </metadata>
  <trk>
    <name><![CDATA[2024 09 15 Flamarens Raymonde 10]]></name>
    <extensions>
      <line xmlns="http://www.topografix.com/GPX/gpx_style/0/2">
        <color>0000FF</color>
        <width>4</width>
      </line>
    </extensions>
    <trkseg>
      <trkpt lat="44.01687" lon="0.79263">
        <ele>200.8</ele>
        <time>2024-09-15T12:17:14.000Z</time>
      </trkpt>
      <trkpt lat="44.01689" lon="0.79272">
        <ele>201.3</ele>
      </trkpt>
      <trkpt lat="44.01694" lon="0.79283">
        <ele>202.1</ele>
        <time>2024-09-15T12:17:50.000Z</time>
      </trkpt>
      <trkpt lat="44.01696" lon="0.79292">
        <ele>202.5</ele>
        <time>2024-09-15T12:17:58.000Z</time>
      </trkpt>
      <trkpt lat="44.01699" lon="0.79302">
        <ele>202.9</ele>
        <time>2024-09-15T12:18:06.000Z</time>
      </trkpt>
      <trkpt lat="44.01701" lon="0.79314">
        <ele>203.2</ele>
        <time>2024-09-15T12:18:14.000Z</time>
      </trkpt>
      <trkpt lat="44.01704" lon="0.79318">
        <ele>203.3</ele>
        <time>2024-09-15T12:18:18.000Z</time>
      </trkpt>
      <trkpt lat="44.01717" lon="0.79327">
        <ele>203.1</ele>
        <time>2024-09-15T12:18:34.000Z</time>
      </trkpt>
      <trkpt lat="44.01721" lon="0.79339">
        <ele>202.8</ele>
        <time>2024-09-15T12:18:42.000Z</time>
      </trkpt>
      <trkpt lat="44.01732" lon="0.79352">
        <ele>201</ele>
        <time>2024-09-15T12:18:58.000Z</time>
      </trkpt>
      <trkpt lat="44.01733" lon="0.79352">
        <ele>200.8</ele>
        <time>2024-09-15T12:19:06.000Z</time>
      </trkpt>
      <trkpt lat="44.01741" lon="0.7937">
        <ele>198.6</ele>
        <time>2024-09-15T12:19:22.000Z</time>
      </trkpt>
      <trkpt lat="44.0176" lon="0.79356">
        <ele>196.8</ele>
        <time>2024-09-15T12:19:42.000Z</time>
      </trkpt>
      <trkpt lat="44.01768" lon="0.79359">
        <ele>195.5</ele>
        <time>2024-09-15T12:19:50.000Z</time>
      </trkpt>
      <trkpt lat="44.01783" lon="0.79371">
        <ele>192.8</ele>
        <time>2024-09-15T12:20:06.000Z</time>
      </trkpt>
      <trkpt lat="44.0181" lon="0.79403">
        <ele>187.6</ele>
        <time>2024-09-15T12:20:38.000Z</time>
      </trkpt>
      <trkpt lat="44.01822" lon="0.7942">
        <ele>184.4</ele>
        <time>2024-09-15T12:20:54.000Z</time>
      </trkpt>
      <trkpt lat="44.01836" lon="0.79435">
        <ele>181.3</ele>
        <time>2024-09-15T12:21:10.000Z</time>
      </trkpt>
      <trkpt lat="44.01867" lon="0.79463">
        <ele>176</ele>
        <time>2024-09-15T12:21:42.000Z</time>
      </trkpt>
      <trkpt lat="44.0188" lon="0.79472">
        <ele>174</ele>
        <time>2024-09-15T12:21:58.000Z</time>
      </trkpt>
      <trkpt lat="44.01897" lon="0.7948">
        <ele>171.9</ele>
        <time>2024-09-15T12:22:14.000Z</time>
      </trkpt>
      <trkpt lat="44.01967" lon="0.79524">
        <ele>165.9</ele>
        <time>2024-09-15T12:23:18.000Z</time>
      </trkpt>
      <trkpt lat="44.01975" lon="0.79525">
        <ele>165.8</ele>
        <time>2024-09-15T12:23:26.000Z</time>
      </trkpt>
      <trkpt lat="44.01982" lon="0.79523">
        <ele>165.5</ele>
        <time>2024-09-15T12:23:34.000Z</time>
      </trkpt>
      <trkpt lat="44.0202" lon="0.795">
        <ele>164</ele>
        <time>2024-09-15T12:24:22.000Z</time>
      </trkpt>
      <trkpt lat="44.02044" lon="0.79476">
        <ele>161.5</ele>
        <time>2024-09-15T12:24:54.000Z</time>
      </trkpt>
      <trkpt lat="44.0207" lon="0.79446">
        <ele>159.5</ele>
        <time>2024-09-15T12:25:26.000Z</time>
      </trkpt>
      <trkpt lat="44.02083" lon="0.79434">
        <ele>159</ele>
        <time>2024-09-15T12:25:42.000Z</time>
      </trkpt>
      <trkpt lat="44.02094" lon="0.79429">
        <ele>158</ele>
        <time>2024-09-15T12:25:58.000Z</time>
      </trkpt>
      <trkpt lat="44.02118" lon="0.79424">
        <ele>155.6</ele>
        <time>2024-09-15T12:26:22.000Z</time>
      </trkpt>
      <trkpt lat="44.02133" lon="0.79417">
        <ele>153</ele>
        <time>2024-09-15T12:26:38.000Z</time>
      </trkpt>
      <trkpt lat="44.02257" lon="0.79333">
        <ele>136.3</ele>
        <time>2024-09-15T12:28:46.000Z</time>
      </trkpt>
      <trkpt lat="44.02289" lon="0.79313">
        <ele>133.9</ele>
        <time>2024-09-15T12:29:18.000Z</time>
      </trkpt>
      <trkpt lat="44.0232" lon="0.79297">
        <ele>131</ele>
        <time>2024-09-15T12:29:50.000Z</time>
      </trkpt>
      <trkpt lat="44.02336" lon="0.79286">
        <ele>129.4</ele>
        <time>2024-09-15T12:30:06.000Z</time>
      </trkpt>
      <trkpt lat="44.02351" lon="0.79273">
        <ele>127.7</ele>
        <time>2024-09-15T12:30:22.000Z</time>
      </trkpt>
      <trkpt lat="44.02378" lon="0.79241">
        <ele>125.2</ele>
        <time>2024-09-15T12:30:54.000Z</time>
      </trkpt>
      <trkpt lat="44.02402" lon="0.79225">
        <ele>123.9</ele>
        <time>2024-09-15T12:31:18.000Z</time>
      </trkpt>
      <trkpt lat="44.02421" lon="0.79217">
        <ele>123.8</ele>
        <time>2024-09-15T12:31:34.000Z</time>
      </trkpt>
      <trkpt lat="44.02437" lon="0.79205">
        <ele>124.9</ele>
        <time>2024-09-15T12:31:50.000Z</time>
      </trkpt>
      <trkpt lat="44.02461" lon="0.79178">
        <ele>127.8</ele>
        <time>2024-09-15T12:33:58.000Z</time>
      </trkpt>
      <trkpt lat="44.0247" lon="0.79169">
        <ele>128.9</ele>
        <time>2024-09-15T12:34:14.000Z</time>
      </trkpt>
      <trkpt lat="44.02484" lon="0.7916">
        <ele>130.7</ele>
        <time>2024-09-15T12:34:30.000Z</time>
      </trkpt>
      <trkpt lat="44.02514" lon="0.79149">
        <ele>135</ele>
        <time>2024-09-15T12:35:02.000Z</time>
      </trkpt>
      <trkpt lat="44.0265" lon="0.79128">
        <ele>154.1</ele>
        <time>2024-09-15T12:37:42.000Z</time>
      </trkpt>
      <trkpt lat="44.02685" lon="0.79118">
        <ele>160.6</ele>
        <time>2024-09-15T12:38:30.000Z</time>
      </trkpt>
      <trkpt lat="44.02714" lon="0.791">
        <ele>163.2</ele>
        <time>2024-09-15T12:39:34.000Z</time>
      </trkpt>
      <trkpt lat="44.02742" lon="0.79079">
        <ele>164.5</ele>
        <time>2024-09-15T12:40:54.000Z</time>
      </trkpt>
      <trkpt lat="44.02815" lon="0.79007">
        <ele>174.6</ele>
        <time>2024-09-15T12:42:30.000Z</time>
      </trkpt>
      <trkpt lat="44.02822" lon="0.79002">
        <ele>175.9</ele>
        <time>2024-09-15T12:42:46.000Z</time>
      </trkpt>
      <trkpt lat="44.02828" lon="0.78994">
        <ele>177</ele>
        <time>2024-09-15T12:43:02.000Z</time>
      </trkpt>
      <trkpt lat="44.02838" lon="0.78984">
        <ele>178.5</ele>
        <time>2024-09-15T12:43:34.000Z</time>
      </trkpt>
      <trkpt lat="44.0289" lon="0.78923">
        <ele>185.2</ele>
        <time>2024-09-15T12:45:26.000Z</time>
      </trkpt>
      <trkpt lat="44.02926" lon="0.78888">
        <ele>187.8</ele>
        <time>2024-09-15T12:46:30.000Z</time>
      </trkpt>
      <trkpt lat="44.02945" lon="0.78861">
        <ele>192</ele>
        <time>2024-09-15T12:48:54.000Z</time>
      </trkpt>
      <trkpt lat="44.02955" lon="0.78845">
        <ele>192.1</ele>
        <time>2024-09-15T12:49:10.000Z</time>
      </trkpt>
      <trkpt lat="44.02979" lon="0.78818">
        <ele>194.8</ele>
        <time>2024-09-15T12:49:42.000Z</time>
      </trkpt>
      <trkpt lat="44.02986" lon="0.78812">
        <ele>195.5</ele>
        <time>2024-09-15T12:49:50.000Z</time>
      </trkpt>
      <trkpt lat="44.03" lon="0.78808">
        <ele>196.7</ele>
        <time>2024-09-15T12:50:06.000Z</time>
      </trkpt>
      <trkpt lat="44.03017" lon="0.78809">
        <ele>197.3</ele>
        <time>2024-09-15T12:50:22.000Z</time>
      </trkpt>
      <trkpt lat="44.03025" lon="0.78811">
        <ele>197.3</ele>
        <time>2024-09-15T12:50:30.000Z</time>
      </trkpt>
      <trkpt lat="44.03039" lon="0.78821">
        <ele>197</ele>
        <time>2024-09-15T12:50:46.000Z</time>
      </trkpt>
      <trkpt lat="44.03077" lon="0.78859">
        <ele>195.7</ele>
        <time>2024-09-15T12:51:26.000Z</time>
      </trkpt>
      <trkpt lat="44.03085" lon="0.78865">
        <ele>195.8</ele>
        <time>2024-09-15T12:51:34.000Z</time>
      </trkpt>
      <trkpt lat="44.0309" lon="0.78866">
        <ele>195.9</ele>
        <time>2024-09-15T12:51:38.000Z</time>
      </trkpt>
      <trkpt lat="44.03096" lon="0.78866">
        <ele>196.2</ele>
        <time>2024-09-15T12:51:42.000Z</time>
      </trkpt>
      <trkpt lat="44.03102" lon="0.78862">
        <ele>196.6</ele>
        <time>2024-09-15T12:51:46.000Z</time>
      </trkpt>
      <trkpt lat="44.03128" lon="0.78824">
        <ele>196.8</ele>
        <time>2024-09-15T12:52:18.000Z</time>
      </trkpt>
      <trkpt lat="44.03142" lon="0.788">
        <ele>195.6</ele>
        <time>2024-09-15T12:52:50.000Z</time>
      </trkpt>
      <trkpt lat="44.03148" lon="0.78794">
        <ele>195.1</ele>
        <time>2024-09-15T12:53:58.000Z</time>
      </trkpt>
      <trkpt lat="44.03151" lon="0.78794">
        <ele>194.7</ele>
        <time>2024-09-15T12:54:02.000Z</time>
      </trkpt>
      <trkpt lat="44.03209" lon="0.78895">
        <ele>191</ele>
        <time>2024-09-15T12:55:38.000Z</time>
      </trkpt>
      <trkpt lat="44.03212" lon="0.78905">
        <ele>190.8</ele>
        <time>2024-09-15T12:55:46.000Z</time>
      </trkpt>
      <trkpt lat="44.03234" lon="0.78942">
        <ele>189.6</ele>
        <time>2024-09-15T12:56:18.000Z</time>
      </trkpt>
      <trkpt lat="44.03241" lon="0.78959">
        <ele>189.3</ele>
        <time>2024-09-15T12:56:34.000Z</time>
      </trkpt>
      <trkpt lat="44.03285" lon="0.79037">
        <ele>188.3</ele>
        <time>2024-09-15T12:57:38.000Z</time>
      </trkpt>
      <trkpt lat="44.03312" lon="0.79066">
        <ele>187.9</ele>
        <time>2024-09-15T12:58:10.000Z</time>
      </trkpt>
      <trkpt lat="44.03373" lon="0.79122">
        <ele>188.1</ele>
        <time>2024-09-15T12:59:14.000Z</time>
      </trkpt>
      <trkpt lat="44.0339" lon="0.7913">
        <ele>188.4</ele>
        <time>2024-09-15T12:59:30.000Z</time>
      </trkpt>
      <trkpt lat="44.03424" lon="0.79138">
        <ele>189.2</ele>
        <time>2024-09-15T13:00:02.000Z</time>
      </trkpt>
      <trkpt lat="44.03494" lon="0.79148">
        <ele>191.6</ele>
        <time>2024-09-15T13:01:06.000Z</time>
      </trkpt>
      <trkpt lat="44.03566" lon="0.79157">
        <ele>192.3</ele>
        <time>2024-09-15T13:02:10.000Z</time>
      </trkpt>
      <trkpt lat="44.03584" lon="0.79156">
        <ele>192.2</ele>
        <time>2024-09-15T13:02:26.000Z</time>
      </trkpt>
      <trkpt lat="44.03593" lon="0.79154">
        <ele>192.2</ele>
        <time>2024-09-15T13:02:34.000Z</time>
      </trkpt>
      <trkpt lat="44.03611" lon="0.79146">
        <ele>192.2</ele>
        <time>2024-09-15T13:02:50.000Z</time>
      </trkpt>
      <trkpt lat="44.03627" lon="0.79134">
        <ele>192.3</ele>
        <time>2024-09-15T13:03:06.000Z</time>
      </trkpt>
      <trkpt lat="44.03774" lon="0.79004">
        <ele>194.9</ele>
        <time>2024-09-15T13:05:46.000Z</time>
      </trkpt>
      <trkpt lat="44.03787" lon="0.78995">
        <ele>195.5</ele>
        <time>2024-09-15T13:06:02.000Z</time>
      </trkpt>
      <trkpt lat="44.03794" lon="0.78988">
        <ele>195.7</ele>
        <time>2024-09-15T13:06:10.000Z</time>
      </trkpt>
      <trkpt lat="44.03885" lon="0.78924">
        <ele>196.9</ele>
        <time>2024-09-15T13:07:46.000Z</time>
      </trkpt>
      <trkpt lat="44.03916" lon="0.78906">
        <ele>197</ele>
        <time>2024-09-15T13:08:18.000Z</time>
      </trkpt>
      <trkpt lat="44.03957" lon="0.78884">
        <ele>197.9</ele>
        <time>2024-09-15T13:08:58.000Z</time>
      </trkpt>
      <trkpt lat="44.03964" lon="0.78882">
        <ele>197.9</ele>
        <time>2024-09-15T13:09:06.000Z</time>
      </trkpt>
      <trkpt lat="44.03978" lon="0.78873">
        <ele>197.9</ele>
        <time>2024-09-15T13:09:22.000Z</time>
      </trkpt>
      <trkpt lat="44.0401" lon="0.78858">
        <ele>196.9</ele>
        <time>2024-09-15T13:09:54.000Z</time>
      </trkpt>
      <trkpt lat="44.04026" lon="0.78854">
        <ele>196.7</ele>
        <time>2024-09-15T13:10:26.000Z</time>
      </trkpt>
      <trkpt lat="44.04029" lon="0.78854">
        <ele>196.8</ele>
        <time>2024-09-15T13:10:42.000Z</time>
      </trkpt>
      <trkpt lat="44.0404" lon="0.78851">
        <ele>196.7</ele>
        <time>2024-09-15T13:10:58.000Z</time>
      </trkpt>
      <trkpt lat="44.04055" lon="0.78851">
        <ele>196.6</ele>
        <time>2024-09-15T13:11:14.000Z</time>
      </trkpt>
      <trkpt lat="44.04071" lon="0.78852">
        <ele>196.3</ele>
        <time>2024-09-15T13:11:30.000Z</time>
      </trkpt>
      <trkpt lat="44.04124" lon="0.78865">
        <ele>194.3</ele>
        <time>2024-09-15T13:12:18.000Z</time>
      </trkpt>
      <trkpt lat="44.04131" lon="0.78868">
        <ele>194</ele>
        <time>2024-09-15T13:12:26.000Z</time>
      </trkpt>
      <trkpt lat="44.04144" lon="0.78871">
        <ele>193.6</ele>
        <time>2024-09-15T13:12:42.000Z</time>
      </trkpt>
      <trkpt lat="44.0415" lon="0.7887">
        <ele>193.3</ele>
        <time>2024-09-15T13:12:50.000Z</time>
      </trkpt>
      <trkpt lat="44.04175" lon="0.78874">
        <ele>192.8</ele>
        <time>2024-09-15T13:13:14.000Z</time>
      </trkpt>
      <trkpt lat="44.04216" lon="0.7887">
        <ele>191.7</ele>
        <time>2024-09-15T13:13:46.000Z</time>
      </trkpt>
      <trkpt lat="44.04235" lon="0.78863">
        <ele>191.2</ele>
        <time>2024-09-15T13:14:02.000Z</time>
      </trkpt>
      <trkpt lat="44.04252" lon="0.78854">
        <ele>190.7</ele>
        <time>2024-09-15T13:14:18.000Z</time>
      </trkpt>
      <trkpt lat="44.04287" lon="0.78829">
        <ele>189.1</ele>
        <time>2024-09-15T13:14:50.000Z</time>
      </trkpt>
      <trkpt lat="44.0432" lon="0.78801">
        <ele>188.8</ele>
        <time>2024-09-15T13:15:22.000Z</time>
      </trkpt>
      <trkpt lat="44.04351" lon="0.78772">
        <ele>189.4</ele>
        <time>2024-09-15T13:15:54.000Z</time>
      </trkpt>
      <trkpt lat="44.04369" lon="0.78759">
        <ele>189.3</ele>
        <time>2024-09-15T13:16:10.000Z</time>
      </trkpt>
      <trkpt lat="44.04387" lon="0.78749">
        <ele>189.7</ele>
        <time>2024-09-15T13:16:26.000Z</time>
      </trkpt>
      <trkpt lat="44.04406" lon="0.78741">
        <ele>189.6</ele>
        <time>2024-09-15T13:16:42.000Z</time>
      </trkpt>
      <trkpt lat="44.04484" lon="0.78721">
        <ele>191.4</ele>
        <time>2024-09-15T13:17:46.000Z</time>
      </trkpt>
      <trkpt lat="44.04502" lon="0.78721">
        <ele>192</ele>
        <time>2024-09-15T13:18:02.000Z</time>
      </trkpt>
      <trkpt lat="44.04521" lon="0.78722">
        <ele>192</ele>
        <time>2024-09-15T13:18:18.000Z</time>
      </trkpt>
      <trkpt lat="44.04606" lon="0.78747">
        <ele>190.8</ele>
        <time>2024-09-15T13:19:54.000Z</time>
      </trkpt>
      <trkpt lat="44.04611" lon="0.78751">
        <ele>191</ele>
        <time>2024-09-15T13:21:42.000Z</time>
      </trkpt>
      <trkpt lat="44.04615" lon="0.78769">
        <ele>191.6</ele>
        <time>2024-09-15T13:21:58.000Z</time>
      </trkpt>
      <trkpt lat="44.04643" lon="0.78849">
        <ele>192.9</ele>
        <time>2024-09-15T13:23:02.000Z</time>
      </trkpt>
      <trkpt lat="44.04656" lon="0.78893">
        <ele>193.4</ele>
        <time>2024-09-15T13:23:34.000Z</time>
      </trkpt>
      <trkpt lat="44.04689" lon="0.78985">
        <ele>192.6</ele>
        <time>2024-09-15T13:24:38.000Z</time>
      </trkpt>
      <trkpt lat="44.04724" lon="0.791">
        <ele>191.1</ele>
        <time>2024-09-15T13:25:58.000Z</time>
      </trkpt>
      <trkpt lat="44.04739" lon="0.79193">
        <ele>191.6</ele>
        <time>2024-09-15T13:27:02.000Z</time>
      </trkpt>
      <trkpt lat="44.04748" lon="0.79238">
        <ele>191.9</ele>
        <time>2024-09-15T13:27:34.000Z</time>
      </trkpt>
      <trkpt lat="44.04751" lon="0.79264">
        <ele>192</ele>
        <time>2024-09-15T13:27:50.000Z</time>
      </trkpt>
      <trkpt lat="44.0475" lon="0.7929">
        <ele>191.6</ele>
        <time>2024-09-15T13:28:06.000Z</time>
      </trkpt>
      <trkpt lat="44.04742" lon="0.79354">
        <ele>189.2</ele>
        <time>2024-09-15T13:29:26.000Z</time>
      </trkpt>
      <trkpt lat="44.04744" lon="0.79362">
        <ele>189</ele>
        <time>2024-09-15T13:34:54.000Z</time>
      </trkpt>
      <trkpt lat="44.04726" lon="0.79438">
        <ele>185.3</ele>
        <time>2024-09-15T13:36:06.000Z</time>
      </trkpt>
      <trkpt lat="44.04718" lon="0.79449">
        <ele>184.8</ele>
        <time>2024-09-15T13:36:18.000Z</time>
      </trkpt>
      <trkpt lat="44.04712" lon="0.79469">
        <ele>184.6</ele>
        <time>2024-09-15T13:36:34.000Z</time>
      </trkpt>
      <trkpt lat="44.04709" lon="0.7949">
        <ele>184.2</ele>
        <time>2024-09-15T13:36:50.000Z</time>
      </trkpt>
      <trkpt lat="44.04709" lon="0.79499">
        <ele>184.1</ele>
        <time>2024-09-15T13:36:58.000Z</time>
      </trkpt>
      <trkpt lat="44.04712" lon="0.7951">
        <ele>183.9</ele>
        <time>2024-09-15T13:37:06.000Z</time>
      </trkpt>
      <trkpt lat="44.04717" lon="0.7952">
        <ele>183.9</ele>
        <time>2024-09-15T13:37:18.000Z</time>
      </trkpt>
      <trkpt lat="44.04724" lon="0.79526">
        <ele>184.1</ele>
        <time>2024-09-15T13:37:26.000Z</time>
      </trkpt>
      <trkpt lat="44.0473" lon="0.79533">
        <ele>183.6</ele>
        <time>2024-09-15T13:37:34.000Z</time>
      </trkpt>
      <trkpt lat="44.04736" lon="0.79569">
        <ele>180.1</ele>
        <time>2024-09-15T13:38:06.000Z</time>
      </trkpt>
      <trkpt lat="44.04736" lon="0.79577">
        <ele>178.9</ele>
        <time>2024-09-15T13:38:14.000Z</time>
      </trkpt>
      <trkpt lat="44.04731" lon="0.79591">
        <ele>176.8</ele>
        <time>2024-09-15T13:38:30.000Z</time>
      </trkpt>
      <trkpt lat="44.04703" lon="0.79614">
        <ele>172.7</ele>
        <time>2024-09-15T13:39:10.000Z</time>
      </trkpt>
      <trkpt lat="44.04689" lon="0.79618">
        <ele>171.1</ele>
        <time>2024-09-15T13:39:26.000Z</time>
      </trkpt>
      <trkpt lat="44.04653" lon="0.7964">
        <ele>163.3</ele>
        <time>2024-09-15T13:40:10.000Z</time>
      </trkpt>
      <trkpt lat="44.04644" lon="0.79653">
        <ele>161</ele>
        <time>2024-09-15T13:40:26.000Z</time>
      </trkpt>
      <trkpt lat="44.0464" lon="0.79665">
        <ele>159.3</ele>
        <time>2024-09-15T13:40:42.000Z</time>
      </trkpt>
      <trkpt lat="44.0463" lon="0.79676">
        <ele>157.9</ele>
        <time>2024-09-15T13:40:58.000Z</time>
      </trkpt>
      <trkpt lat="44.04625" lon="0.7968">
        <ele>157.5</ele>
        <time>2024-09-15T13:41:06.000Z</time>
      </trkpt>
      <trkpt lat="44.0462" lon="0.79676">
        <ele>157.4</ele>
        <time>2024-09-15T13:41:14.000Z</time>
      </trkpt>
      <trkpt lat="44.04616" lon="0.79666">
        <ele>157.4</ele>
        <time>2024-09-15T13:41:30.000Z</time>
      </trkpt>
      <trkpt lat="44.04617" lon="0.79652">
        <ele>158.6</ele>
        <time>2024-09-15T13:41:46.000Z</time>
      </trkpt>
      <trkpt lat="44.04616" lon="0.79646">
        <ele>159</ele>
        <time>2024-09-15T13:41:54.000Z</time>
      </trkpt>
      <trkpt lat="44.04605" lon="0.79636">
        <ele>159.1</ele>
        <time>2024-09-15T13:42:10.000Z</time>
      </trkpt>
      <trkpt lat="44.04603" lon="0.7963">
        <ele>159.3</ele>
        <time>2024-09-15T13:42:18.000Z</time>
      </trkpt>
      <trkpt lat="44.04597" lon="0.79626">
        <ele>159.5</ele>
        <time>2024-09-15T13:42:26.000Z</time>
      </trkpt>
      <trkpt lat="44.04586" lon="0.79623">
        <ele>159.6</ele>
        <time>2024-09-15T13:42:42.000Z</time>
      </trkpt>
      <trkpt lat="44.04579" lon="0.79622">
        <ele>160.2</ele>
        <time>2024-09-15T13:42:50.000Z</time>
      </trkpt>
      <trkpt lat="44.04569" lon="0.79617">
        <ele>161.8</ele>
        <time>2024-09-15T13:43:06.000Z</time>
      </trkpt>
      <trkpt lat="44.04567" lon="0.79618">
        <ele>162.1</ele>
        <time>2024-09-15T13:43:10.000Z</time>
      </trkpt>
      <trkpt lat="44.04559" lon="0.79622">
        <ele>163</ele>
        <time>2024-09-15T13:43:22.000Z</time>
      </trkpt>
      <trkpt lat="44.04555" lon="0.79628">
        <ele>163.5</ele>
        <time>2024-09-15T13:43:30.000Z</time>
      </trkpt>
      <trkpt lat="44.04551" lon="0.79635">
        <ele>163.8</ele>
        <time>2024-09-15T13:43:38.000Z</time>
      </trkpt>
      <trkpt lat="44.0455" lon="0.79641">
        <ele>163.6</ele>
        <time>2024-09-15T13:43:46.000Z</time>
      </trkpt>
      <trkpt lat="44.04546" lon="0.79649">
        <ele>163.6</ele>
        <time>2024-09-15T13:43:54.000Z</time>
      </trkpt>
      <trkpt lat="44.04541" lon="0.79653">
        <ele>163.8</ele>
        <time>2024-09-15T13:44:02.000Z</time>
      </trkpt>
      <trkpt lat="44.04527" lon="0.79674">
        <ele>163</ele>
        <time>2024-09-15T13:44:26.000Z</time>
      </trkpt>
      <trkpt lat="44.04524" lon="0.7968">
        <ele>162.2</ele>
        <time>2024-09-15T13:44:34.000Z</time>
      </trkpt>
      <trkpt lat="44.04519" lon="0.79685">
        <ele>161.7</ele>
        <time>2024-09-15T13:44:42.000Z</time>
      </trkpt>
      <trkpt lat="44.04513" lon="0.79698">
        <ele>160.3</ele>
        <time>2024-09-15T13:44:58.000Z</time>
      </trkpt>
      <trkpt lat="44.04511" lon="0.79711">
        <ele>159.4</ele>
        <time>2024-09-15T13:45:14.000Z</time>
      </trkpt>
      <trkpt lat="44.04505" lon="0.79713">
        <ele>159.5</ele>
        <time>2024-09-15T13:45:30.000Z</time>
      </trkpt>
      <trkpt lat="44.04503" lon="0.79714">
        <ele>159.5</ele>
        <time>2024-09-15T13:45:38.000Z</time>
      </trkpt>
      <trkpt lat="44.04499" lon="0.79715">
        <ele>159.6</ele>
        <time>2024-09-15T13:45:46.000Z</time>
      </trkpt>
      <trkpt lat="44.04487" lon="0.79712">
        <ele>160.4</ele>
        <time>2024-09-15T13:46:02.000Z</time>
      </trkpt>
      <trkpt lat="44.04474" lon="0.79711">
        <ele>161.1</ele>
        <time>2024-09-15T13:46:26.000Z</time>
      </trkpt>
      <trkpt lat="44.04458" lon="0.79713">
        <ele>161.5</ele>
        <time>2024-09-15T13:47:14.000Z</time>
      </trkpt>
      <trkpt lat="44.04454" lon="0.79711">
        <ele>161.8</ele>
        <time>2024-09-15T13:47:30.000Z</time>
      </trkpt>
      <trkpt lat="44.04433" lon="0.7971">
        <ele>162.6</ele>
        <time>2024-09-15T13:48:02.000Z</time>
      </trkpt>
      <trkpt lat="44.04423" lon="0.79711">
        <ele>162.7</ele>
        <time>2024-09-15T13:48:18.000Z</time>
      </trkpt>
      <trkpt lat="44.04389" lon="0.79722">
        <ele>163</ele>
        <time>2024-09-15T13:48:58.000Z</time>
      </trkpt>
      <trkpt lat="44.04383" lon="0.79727">
        <ele>163</ele>
        <time>2024-09-15T13:49:06.000Z</time>
      </trkpt>
      <trkpt lat="44.04358" lon="0.79739">
        <ele>163.6</ele>
        <time>2024-09-15T13:49:38.000Z</time>
      </trkpt>
      <trkpt lat="44.0435" lon="0.79741">
        <ele>163.9</ele>
        <time>2024-09-15T13:49:46.000Z</time>
      </trkpt>
      <trkpt lat="44.04342" lon="0.79741">
        <ele>164.2</ele>
        <time>2024-09-15T13:49:54.000Z</time>
      </trkpt>
      <trkpt lat="44.04314" lon="0.79754">
        <ele>164.6</ele>
        <time>2024-09-15T13:50:26.000Z</time>
      </trkpt>
      <trkpt lat="44.04308" lon="0.79759">
        <ele>164.6</ele>
        <time>2024-09-15T13:50:34.000Z</time>
      </trkpt>
      <trkpt lat="44.04299" lon="0.79772">
        <ele>164.5</ele>
        <time>2024-09-15T13:50:50.000Z</time>
      </trkpt>
      <trkpt lat="44.04292" lon="0.79776">
        <ele>164.6</ele>
        <time>2024-09-15T13:50:58.000Z</time>
      </trkpt>
      <trkpt lat="44.04273" lon="0.7978">
        <ele>165.2</ele>
        <time>2024-09-15T13:51:22.000Z</time>
      </trkpt>
      <trkpt lat="44.04267" lon="0.79783">
        <ele>165.5</ele>
        <time>2024-09-15T13:51:30.000Z</time>
      </trkpt>
      <trkpt lat="44.04259" lon="0.79786">
        <ele>165.8</ele>
        <time>2024-09-15T13:51:38.000Z</time>
      </trkpt>
      <trkpt lat="44.04242" lon="0.79788">
        <ele>166.3</ele>
        <time>2024-09-15T13:51:54.000Z</time>
      </trkpt>
      <trkpt lat="44.04235" lon="0.79793">
        <ele>166.6</ele>
        <time>2024-09-15T13:52:02.000Z</time>
      </trkpt>
      <trkpt lat="44.04223" lon="0.79798">
        <ele>167</ele>
        <time>2024-09-15T13:52:18.000Z</time>
      </trkpt>
      <trkpt lat="44.04212" lon="0.79806">
        <ele>168.1</ele>
        <time>2024-09-15T13:52:30.000Z</time>
      </trkpt>
      <trkpt lat="44.04208" lon="0.79816">
        <ele>168.4</ele>
        <time>2024-09-15T13:52:38.000Z</time>
      </trkpt>
      <trkpt lat="44.04172" lon="0.79865">
        <ele>169.8</ele>
        <time>2024-09-15T13:53:34.000Z</time>
      </trkpt>
      <trkpt lat="44.04165" lon="0.79871">
        <ele>170.3</ele>
        <time>2024-09-15T13:53:42.000Z</time>
      </trkpt>
      <trkpt lat="44.04157" lon="0.79879">
        <ele>171.1</ele>
        <time>2024-09-15T13:53:50.000Z</time>
      </trkpt>
      <trkpt lat="44.04152" lon="0.79886">
        <ele>171.2</ele>
        <time>2024-09-15T13:53:58.000Z</time>
      </trkpt>
      <trkpt lat="44.04138" lon="0.799">
        <ele>171.7</ele>
        <time>2024-09-15T13:54:14.000Z</time>
      </trkpt>
      <trkpt lat="44.04124" lon="0.79916">
        <ele>172.6</ele>
        <time>2024-09-15T13:54:30.000Z</time>
      </trkpt>
      <trkpt lat="44.04109" lon="0.7994">
        <ele>173.4</ele>
        <time>2024-09-15T13:54:54.000Z</time>
      </trkpt>
      <trkpt lat="44.04101" lon="0.79947">
        <ele>174.1</ele>
        <time>2024-09-15T13:55:02.000Z</time>
      </trkpt>
      <trkpt lat="44.04095" lon="0.79954">
        <ele>174.5</ele>
        <time>2024-09-15T13:55:10.000Z</time>
      </trkpt>
      <trkpt lat="44.04092" lon="0.79963">
        <ele>174.3</ele>
        <time>2024-09-15T13:55:18.000Z</time>
      </trkpt>
      <trkpt lat="44.04061" lon="0.80004">
        <ele>176</ele>
        <time>2024-09-15T13:55:58.000Z</time>
      </trkpt>
      <trkpt lat="44.0405" lon="0.80015">
        <ele>176.9</ele>
        <time>2024-09-15T13:56:14.000Z</time>
      </trkpt>
      <trkpt lat="44.04047" lon="0.80025">
        <ele>177.3</ele>
        <time>2024-09-15T13:56:22.000Z</time>
      </trkpt>
      <trkpt lat="44.04049" lon="0.8003">
        <ele>177.4</ele>
        <time>2024-09-15T13:56:30.000Z</time>
      </trkpt>
      <trkpt lat="44.04048" lon="0.8004">
        <ele>178.1</ele>
        <time>2024-09-15T13:56:42.000Z</time>
      </trkpt>
      <trkpt lat="44.04021" lon="0.80074">
        <ele>179.7</ele>
        <time>2024-09-15T13:57:22.000Z</time>
      </trkpt>
      <trkpt lat="44.04006" lon="0.80105">
        <ele>182.4</ele>
        <time>2024-09-15T13:58:02.000Z</time>
      </trkpt>
      <trkpt lat="44.04003" lon="0.80106">
        <ele>182.5</ele>
        <time>2024-09-15T13:58:10.000Z</time>
      </trkpt>
      <trkpt lat="44.03996" lon="0.80125">
        <ele>184.4</ele>
        <time>2024-09-15T13:58:42.000Z</time>
      </trkpt>
      <trkpt lat="44.03988" lon="0.80135">
        <ele>185.5</ele>
        <time>2024-09-15T13:58:58.000Z</time>
      </trkpt>
      <trkpt lat="44.0398" lon="0.80148">
        <ele>186.9</ele>
        <time>2024-09-15T13:59:10.000Z</time>
      </trkpt>
      <trkpt lat="44.03971" lon="0.80159">
        <ele>188.1</ele>
        <time>2024-09-15T13:59:26.000Z</time>
      </trkpt>
      <trkpt lat="44.03966" lon="0.80162">
        <ele>188.2</ele>
        <time>2024-09-15T14:00:54.000Z</time>
      </trkpt>
      <trkpt lat="44.0396" lon="0.80171">
        <ele>188.8</ele>
        <time>2024-09-15T14:01:18.000Z</time>
      </trkpt>
      <trkpt lat="44.03946" lon="0.80181">
        <ele>189.1</ele>
        <time>2024-09-15T14:01:38.000Z</time>
      </trkpt>
      <trkpt lat="44.03943" lon="0.80191">
        <ele>189.7</ele>
        <time>2024-09-15T14:01:46.000Z</time>
      </trkpt>
      <trkpt lat="44.03933" lon="0.80207">
        <ele>190.9</ele>
        <time>2024-09-15T14:02:02.000Z</time>
      </trkpt>
      <trkpt lat="44.03924" lon="0.80228">
        <ele>192.2</ele>
        <time>2024-09-15T14:02:18.000Z</time>
      </trkpt>
      <trkpt lat="44.0392" lon="0.80248">
        <ele>192.9</ele>
        <time>2024-09-15T14:02:34.000Z</time>
      </trkpt>
      <trkpt lat="44.03902" lon="0.80287">
        <ele>193.3</ele>
        <time>2024-09-15T14:03:06.000Z</time>
      </trkpt>
      <trkpt lat="44.03884" lon="0.80306">
        <ele>194</ele>
        <time>2024-09-15T14:03:30.000Z</time>
      </trkpt>
      <trkpt lat="44.0387" lon="0.80328">
        <ele>194</ele>
        <time>2024-09-15T14:03:54.000Z</time>
      </trkpt>
      <trkpt lat="44.03856" lon="0.80342">
        <ele>194.4</ele>
        <time>2024-09-15T14:04:10.000Z</time>
      </trkpt>
      <trkpt lat="44.0385" lon="0.80346">
        <ele>194.7</ele>
        <time>2024-09-15T14:04:18.000Z</time>
      </trkpt>
      <trkpt lat="44.03837" lon="0.8036">
        <ele>195</ele>
        <time>2024-09-15T14:04:34.000Z</time>
      </trkpt>
      <trkpt lat="44.03825" lon="0.80381">
        <ele>195.3</ele>
        <time>2024-09-15T14:04:54.000Z</time>
      </trkpt>
      <trkpt lat="44.03819" lon="0.80403">
        <ele>195.8</ele>
        <time>2024-09-15T14:05:10.000Z</time>
      </trkpt>
      <trkpt lat="44.03795" lon="0.80439">
        <ele>196</ele>
        <time>2024-09-15T14:05:42.000Z</time>
      </trkpt>
      <trkpt lat="44.03793" lon="0.80445">
        <ele>196</ele>
        <time>2024-09-15T14:05:50.000Z</time>
      </trkpt>
      <trkpt lat="44.03792" lon="0.80458">
        <ele>196</ele>
        <time>2024-09-15T14:06:46.000Z</time>
      </trkpt>
      <trkpt lat="44.03794" lon="0.80468">
        <ele>196</ele>
        <time>2024-09-15T14:07:14.000Z</time>
      </trkpt>
      <trkpt lat="44.03791" lon="0.80473">
        <ele>196</ele>
        <time>2024-09-15T14:07:22.000Z</time>
      </trkpt>
      <trkpt lat="44.03686" lon="0.80481">
        <ele>195.4</ele>
        <time>2024-09-15T14:09:02.000Z</time>
      </trkpt>
      <trkpt lat="44.03684" lon="0.80479">
        <ele>195.4</ele>
        <time>2024-09-15T14:09:06.000Z</time>
      </trkpt>
      <trkpt lat="44.03676" lon="0.80479">
        <ele>195.1</ele>
        <time>2024-09-15T14:09:14.000Z</time>
      </trkpt>
      <trkpt lat="44.03669" lon="0.80481">
        <ele>194.8</ele>
        <time>2024-09-15T14:09:22.000Z</time>
      </trkpt>
      <trkpt lat="44.03633" lon="0.80483">
        <ele>193.4</ele>
        <time>2024-09-15T14:09:54.000Z</time>
      </trkpt>
      <trkpt lat="44.03615" lon="0.80485">
        <ele>192.7</ele>
        <time>2024-09-15T14:10:10.000Z</time>
      </trkpt>
      <trkpt lat="44.03605" lon="0.80489">
        <ele>192.1</ele>
        <time>2024-09-15T14:10:18.000Z</time>
      </trkpt>
      <trkpt lat="44.03589" lon="0.80503">
        <ele>192</ele>
        <time>2024-09-15T14:10:34.000Z</time>
      </trkpt>
      <trkpt lat="44.03571" lon="0.80514">
        <ele>191.6</ele>
        <time>2024-09-15T14:10:50.000Z</time>
      </trkpt>
      <trkpt lat="44.03554" lon="0.80528">
        <ele>191.9</ele>
        <time>2024-09-15T14:11:06.000Z</time>
      </trkpt>
      <trkpt lat="44.03527" lon="0.80565">
        <ele>192</ele>
        <time>2024-09-15T14:11:38.000Z</time>
      </trkpt>
      <trkpt lat="44.03515" lon="0.80586">
        <ele>192</ele>
        <time>2024-09-15T14:11:54.000Z</time>
      </trkpt>
      <trkpt lat="44.03454" lon="0.80683">
        <ele>194.3</ele>
        <time>2024-09-15T14:13:14.000Z</time>
      </trkpt>
      <trkpt lat="44.0344" lon="0.807">
        <ele>194.5</ele>
        <time>2024-09-15T14:13:30.000Z</time>
      </trkpt>
      <trkpt lat="44.03424" lon="0.80715">
        <ele>195.1</ele>
        <time>2024-09-15T14:13:46.000Z</time>
      </trkpt>
      <trkpt lat="44.03407" lon="0.80727">
        <ele>195.1</ele>
        <time>2024-09-15T14:14:02.000Z</time>
      </trkpt>
      <trkpt lat="44.03391" lon="0.80737">
        <ele>195</ele>
        <time>2024-09-15T14:14:18.000Z</time>
      </trkpt>
      <trkpt lat="44.03381" lon="0.8074">
        <ele>194.7</ele>
        <time>2024-09-15T14:14:26.000Z</time>
      </trkpt>
      <trkpt lat="44.03362" lon="0.80744">
        <ele>194</ele>
        <time>2024-09-15T14:14:42.000Z</time>
      </trkpt>
      <trkpt lat="44.03325" lon="0.8075">
        <ele>192.7</ele>
        <time>2024-09-15T14:15:14.000Z</time>
      </trkpt>
      <trkpt lat="44.03307" lon="0.8075">
        <ele>192</ele>
        <time>2024-09-15T14:15:30.000Z</time>
      </trkpt>
      <trkpt lat="44.03288" lon="0.80747">
        <ele>190.7</ele>
        <time>2024-09-15T14:15:46.000Z</time>
      </trkpt>
      <trkpt lat="44.03252" lon="0.80737">
        <ele>189.1</ele>
        <time>2024-09-15T14:16:18.000Z</time>
      </trkpt>
      <trkpt lat="44.03216" lon="0.8073">
        <ele>188.7</ele>
        <time>2024-09-15T14:16:50.000Z</time>
      </trkpt>
      <trkpt lat="44.03197" lon="0.80727">
        <ele>188.8</ele>
        <time>2024-09-15T14:17:06.000Z</time>
      </trkpt>
      <trkpt lat="44.0318" lon="0.80731">
        <ele>188.2</ele>
        <time>2024-09-15T14:17:22.000Z</time>
      </trkpt>
      <trkpt lat="44.03171" lon="0.80735">
        <ele>187.7</ele>
        <time>2024-09-15T14:17:30.000Z</time>
      </trkpt>
      <trkpt lat="44.03156" lon="0.80749">
        <ele>185.5</ele>
        <time>2024-09-15T14:17:46.000Z</time>
      </trkpt>
      <trkpt lat="44.03145" lon="0.80764">
        <ele>183.8</ele>
        <time>2024-09-15T14:18:02.000Z</time>
      </trkpt>
      <trkpt lat="44.03137" lon="0.80783">
        <ele>182.2</ele>
        <time>2024-09-15T14:18:18.000Z</time>
      </trkpt>
      <trkpt lat="44.03128" lon="0.80826">
        <ele>178.1</ele>
        <time>2024-09-15T14:18:50.000Z</time>
      </trkpt>
      <trkpt lat="44.03123" lon="0.80877">
        <ele>175.8</ele>
        <time>2024-09-15T14:19:22.000Z</time>
      </trkpt>
      <trkpt lat="44.03115" lon="0.80932">
        <ele>173.4</ele>
        <time>2024-09-15T14:20:10.000Z</time>
      </trkpt>
      <trkpt lat="44.03109" lon="0.80956">
        <ele>172.3</ele>
        <time>2024-09-15T14:20:26.000Z</time>
      </trkpt>
      <trkpt lat="44.03102" lon="0.80978">
        <ele>171.2</ele>
        <time>2024-09-15T14:20:42.000Z</time>
      </trkpt>
      <trkpt lat="44.03092" lon="0.80999">
        <ele>170.3</ele>
        <time>2024-09-15T14:20:58.000Z</time>
      </trkpt>
      <trkpt lat="44.03082" lon="0.81018">
        <ele>170.4</ele>
        <time>2024-09-15T14:21:14.000Z</time>
      </trkpt>
      <trkpt lat="44.03068" lon="0.8105">
        <ele>170.3</ele>
        <time>2024-09-15T14:23:06.000Z</time>
      </trkpt>
      <trkpt lat="44.03059" lon="0.81082">
        <ele>170.8</ele>
        <time>2024-09-15T14:24:42.000Z</time>
      </trkpt>
      <trkpt lat="44.03055" lon="0.81107">
        <ele>170.1</ele>
        <time>2024-09-15T14:24:58.000Z</time>
      </trkpt>
      <trkpt lat="44.03055" lon="0.81121">
        <ele>169.6</ele>
        <time>2024-09-15T14:25:06.000Z</time>
      </trkpt>
      <trkpt lat="44.03063" lon="0.812">
        <ele>167.3</ele>
        <time>2024-09-15T14:25:54.000Z</time>
      </trkpt>
      <trkpt lat="44.03063" lon="0.81226">
        <ele>166.7</ele>
        <time>2024-09-15T14:26:10.000Z</time>
      </trkpt>
      <trkpt lat="44.03061" lon="0.81248">
        <ele>166.6</ele>
        <time>2024-09-15T14:26:26.000Z</time>
      </trkpt>
      <trkpt lat="44.03051" lon="0.81296">
        <ele>165.7</ele>
        <time>2024-09-15T14:26:58.000Z</time>
      </trkpt>
      <trkpt lat="44.03037" lon="0.81345">
        <ele>164.9</ele>
        <time>2024-09-15T14:27:30.000Z</time>
      </trkpt>
      <trkpt lat="44.03018" lon="0.81392">
        <ele>164.7</ele>
        <time>2024-09-15T14:28:02.000Z</time>
      </trkpt>
      <trkpt lat="44.03002" lon="0.81441">
        <ele>164.9</ele>
        <time>2024-09-15T14:28:34.000Z</time>
      </trkpt>
      <trkpt lat="44.0299" lon="0.81492">
        <ele>162.8</ele>
        <time>2024-09-15T14:29:06.000Z</time>
      </trkpt>
      <trkpt lat="44.02972" lon="0.81601">
        <ele>159</ele>
        <time>2024-09-15T14:30:10.000Z</time>
      </trkpt>
      <trkpt lat="44.02969" lon="0.81628">
        <ele>158.3</ele>
        <time>2024-09-15T14:30:26.000Z</time>
      </trkpt>
      <trkpt lat="44.02968" lon="0.81657">
        <ele>158</ele>
        <time>2024-09-15T14:30:42.000Z</time>
      </trkpt>
      <trkpt lat="44.02972" lon="0.81683">
        <ele>158.6</ele>
        <time>2024-09-15T14:30:58.000Z</time>
      </trkpt>
      <trkpt lat="44.03" lon="0.81787">
        <ele>159.3</ele>
        <time>2024-09-15T14:32:02.000Z</time>
      </trkpt>
      <trkpt lat="44.0301" lon="0.81839">
        <ele>158.9</ele>
        <time>2024-09-15T14:32:34.000Z</time>
      </trkpt>
      <trkpt lat="44.03016" lon="0.8195">
        <ele>155.3</ele>
        <time>2024-09-15T14:33:38.000Z</time>
      </trkpt>
      <trkpt lat="44.03022" lon="0.82006">
        <ele>153.8</ele>
        <time>2024-09-15T14:34:10.000Z</time>
      </trkpt>
      <trkpt lat="44.03028" lon="0.82105">
        <ele>152</ele>
        <time>2024-09-15T14:35:06.000Z</time>
      </trkpt>
      <trkpt lat="44.03028" lon="0.8212">
        <ele>151.7</ele>
        <time>2024-09-15T14:35:14.000Z</time>
      </trkpt>
      <trkpt lat="44.03025" lon="0.82134">
        <ele>151.1</ele>
        <time>2024-09-15T14:35:22.000Z</time>
      </trkpt>
      <trkpt lat="44.03019" lon="0.82144">
        <ele>150.5</ele>
        <time>2024-09-15T14:35:30.000Z</time>
      </trkpt>
      <trkpt lat="44.03" lon="0.8216">
        <ele>149.2</ele>
        <time>2024-09-15T14:36:02.000Z</time>
      </trkpt>
      <trkpt lat="44.02985" lon="0.8217">
        <ele>147.9</ele>
        <time>2024-09-15T14:36:18.000Z</time>
      </trkpt>
      <trkpt lat="44.02922" lon="0.82225">
        <ele>142.3</ele>
        <time>2024-09-15T14:37:22.000Z</time>
      </trkpt>
      <trkpt lat="44.0289" lon="0.82255">
        <ele>139.8</ele>
        <time>2024-09-15T14:37:54.000Z</time>
      </trkpt>
      <trkpt lat="44.02878" lon="0.82265">
        <ele>138.5</ele>
        <time>2024-09-15T14:38:06.000Z</time>
      </trkpt>
      <trkpt lat="44.02874" lon="0.82264">
        <ele>138.1</ele>
        <time>2024-09-15T14:38:10.000Z</time>
      </trkpt>
      <trkpt lat="44.02871" lon="0.82261">
        <ele>137.9</ele>
        <time>2024-09-15T14:38:14.000Z</time>
      </trkpt>
      <trkpt lat="44.02858" lon="0.82212">
        <ele>137.9</ele>
        <time>2024-09-15T14:38:46.000Z</time>
      </trkpt>
      <trkpt lat="44.02848" lon="0.82164">
        <ele>136.6</ele>
        <time>2024-09-15T14:39:18.000Z</time>
      </trkpt>
      <trkpt lat="44.02848" lon="0.82097">
        <ele>136</ele>
        <time>2024-09-15T14:39:58.000Z</time>
      </trkpt>
      <trkpt lat="44.02843" lon="0.82084">
        <ele>135.7</ele>
        <time>2024-09-15T14:40:06.000Z</time>
      </trkpt>
      <trkpt lat="44.02834" lon="0.82078">
        <ele>135.4</ele>
        <time>2024-09-15T14:40:14.000Z</time>
      </trkpt>
      <trkpt lat="44.02825" lon="0.82074">
        <ele>135.5</ele>
        <time>2024-09-15T14:40:22.000Z</time>
      </trkpt>
      <trkpt lat="44.02816" lon="0.82067">
        <ele>135.9</ele>
        <time>2024-09-15T14:40:30.000Z</time>
      </trkpt>
      <trkpt lat="44.02809" lon="0.8206">
        <ele>136.6</ele>
        <time>2024-09-15T14:40:38.000Z</time>
      </trkpt>
      <trkpt lat="44.0279" lon="0.82017">
        <ele>140.2</ele>
        <time>2024-09-15T14:41:10.000Z</time>
      </trkpt>
      <trkpt lat="44.02779" lon="0.81979">
        <ele>141.8</ele>
        <time>2024-09-15T14:41:42.000Z</time>
      </trkpt>
      <trkpt lat="44.02778" lon="0.81971">
        <ele>142</ele>
        <time>2024-09-15T14:43:34.000Z</time>
      </trkpt>
      <trkpt lat="44.02771" lon="0.81936">
        <ele>141.7</ele>
        <time>2024-09-15T14:44:06.000Z</time>
      </trkpt>
      <trkpt lat="44.0277" lon="0.81906">
        <ele>140.3</ele>
        <time>2024-09-15T14:44:22.000Z</time>
      </trkpt>
      <trkpt lat="44.02764" lon="0.8185">
        <ele>139.4</ele>
        <time>2024-09-15T14:44:54.000Z</time>
      </trkpt>
      <trkpt lat="44.02753" lon="0.81819">
        <ele>139.7</ele>
        <time>2024-09-15T14:45:18.000Z</time>
      </trkpt>
      <trkpt lat="44.02731" lon="0.81774">
        <ele>140.1</ele>
        <time>2024-09-15T14:45:54.000Z</time>
      </trkpt>
      <trkpt lat="44.02721" lon="0.81749">
        <ele>141.1</ele>
        <time>2024-09-15T14:46:10.000Z</time>
      </trkpt>
      <trkpt lat="44.02713" lon="0.81723">
        <ele>142.6</ele>
        <time>2024-09-15T14:46:26.000Z</time>
      </trkpt>
      <trkpt lat="44.02702" lon="0.81701">
        <ele>144.4</ele>
        <time>2024-09-15T14:46:42.000Z</time>
      </trkpt>
      <trkpt lat="44.02687" lon="0.81656">
        <ele>145.7</ele>
        <time>2024-09-15T14:47:22.000Z</time>
      </trkpt>
      <trkpt lat="44.02685" lon="0.81646">
        <ele>145.1</ele>
        <time>2024-09-15T14:47:30.000Z</time>
      </trkpt>
      <trkpt lat="44.02675" lon="0.81631">
        <ele>143.2</ele>
        <time>2024-09-15T14:47:46.000Z</time>
      </trkpt>
      <trkpt lat="44.02664" lon="0.8162">
        <ele>141.1</ele>
        <time>2024-09-15T14:48:02.000Z</time>
      </trkpt>
      <trkpt lat="44.02645" lon="0.8159">
        <ele>134.7</ele>
        <time>2024-09-15T14:48:34.000Z</time>
      </trkpt>
      <trkpt lat="44.02636" lon="0.81573">
        <ele>131.3</ele>
        <time>2024-09-15T14:48:50.000Z</time>
      </trkpt>
      <trkpt lat="44.02626" lon="0.81561">
        <ele>128.8</ele>
        <time>2024-09-15T14:49:06.000Z</time>
      </trkpt>
      <trkpt lat="44.02608" lon="0.81545">
        <ele>125.2</ele>
        <time>2024-09-15T14:49:30.000Z</time>
      </trkpt>
      <trkpt lat="44.02583" lon="0.81514">
        <ele>119.4</ele>
        <time>2024-09-15T14:50:02.000Z</time>
      </trkpt>
      <trkpt lat="44.0256" lon="0.81477">
        <ele>113.7</ele>
        <time>2024-09-15T14:50:34.000Z</time>
      </trkpt>
      <trkpt lat="44.02521" lon="0.81394">
        <ele>106.5</ele>
        <time>2024-09-15T14:51:38.000Z</time>
      </trkpt>
      <trkpt lat="44.02513" lon="0.81372">
        <ele>104.1</ele>
        <time>2024-09-15T14:51:54.000Z</time>
      </trkpt>
      <trkpt lat="44.02506" lon="0.81349">
        <ele>101.4</ele>
        <time>2024-09-15T14:52:10.000Z</time>
      </trkpt>
      <trkpt lat="44.02471" lon="0.81264">
        <ele>94</ele>
        <time>2024-09-15T14:53:10.000Z</time>
      </trkpt>
      <trkpt lat="44.02464" lon="0.81256">
        <ele>93.9</ele>
        <time>2024-09-15T14:53:18.000Z</time>
      </trkpt>
      <trkpt lat="44.02461" lon="0.81242">
        <ele>94.3</ele>
        <time>2024-09-15T14:53:26.000Z</time>
      </trkpt>
      <trkpt lat="44.02462" lon="0.81215">
        <ele>95.3</ele>
        <time>2024-09-15T14:53:42.000Z</time>
      </trkpt>
      <trkpt lat="44.0246" lon="0.81172">
        <ele>98.5</ele>
        <time>2024-09-15T14:54:14.000Z</time>
      </trkpt>
      <trkpt lat="44.02451" lon="0.81102">
        <ele>104.9</ele>
        <time>2024-09-15T14:55:02.000Z</time>
      </trkpt>
      <trkpt lat="44.02448" lon="0.81052">
        <ele>106.8</ele>
        <time>2024-09-15T14:55:34.000Z</time>
      </trkpt>
      <trkpt lat="44.02442" lon="0.81001">
        <ele>107.8</ele>
        <time>2024-09-15T14:56:06.000Z</time>
      </trkpt>
      <trkpt lat="44.02438" lon="0.80926">
        <ele>110.9</ele>
        <time>2024-09-15T14:56:54.000Z</time>
      </trkpt>
      <trkpt lat="44.02431" lon="0.80876">
        <ele>112.2</ele>
        <time>2024-09-15T14:57:26.000Z</time>
      </trkpt>
      <trkpt lat="44.02412" lon="0.80781">
        <ele>116.4</ele>
        <time>2024-09-15T14:58:30.000Z</time>
      </trkpt>
      <trkpt lat="44.02405" lon="0.80733">
        <ele>118.6</ele>
        <time>2024-09-15T14:59:02.000Z</time>
      </trkpt>
      <trkpt lat="44.02395" lon="0.80687">
        <ele>120.7</ele>
        <time>2024-09-15T14:59:34.000Z</time>
      </trkpt>
      <trkpt lat="44.02386" lon="0.80657">
        <ele>122.3</ele>
        <time>2024-09-15T15:00:06.000Z</time>
      </trkpt>
      <trkpt lat="44.02386" lon="0.8065">
        <ele>123</ele>
        <time>2024-09-15T15:00:46.000Z</time>
      </trkpt>
      <trkpt lat="44.02363" lon="0.80559">
        <ele>127.7</ele>
        <time>2024-09-15T15:01:50.000Z</time>
      </trkpt>
      <trkpt lat="44.02335" lon="0.80463">
        <ele>131.8</ele>
        <time>2024-09-15T15:02:54.000Z</time>
      </trkpt>
      <trkpt lat="44.02318" lon="0.80416">
        <ele>132.9</ele>
        <time>2024-09-15T15:03:26.000Z</time>
      </trkpt>
      <trkpt lat="44.02283" lon="0.80337">
        <ele>135</ele>
        <time>2024-09-15T15:04:30.000Z</time>
      </trkpt>
      <trkpt lat="44.02279" lon="0.80325">
        <ele>135.7</ele>
        <time>2024-09-15T15:05:18.000Z</time>
      </trkpt>
      <trkpt lat="44.0226" lon="0.80276">
        <ele>136.1</ele>
        <time>2024-09-15T15:05:50.000Z</time>
      </trkpt>
      <trkpt lat="44.02238" lon="0.80204">
        <ele>134.2</ele>
        <time>2024-09-15T15:06:38.000Z</time>
      </trkpt>
      <trkpt lat="44.02228" lon="0.80183">
        <ele>134.8</ele>
        <time>2024-09-15T15:06:54.000Z</time>
      </trkpt>
      <trkpt lat="44.02215" lon="0.80161">
        <ele>136.2</ele>
        <time>2024-09-15T15:07:10.000Z</time>
      </trkpt>
      <trkpt lat="44.02205" lon="0.80138">
        <ele>137.5</ele>
        <time>2024-09-15T15:07:26.000Z</time>
      </trkpt>
      <trkpt lat="44.02198" lon="0.80114">
        <ele>139.7</ele>
        <time>2024-09-15T15:07:42.000Z</time>
      </trkpt>
      <trkpt lat="44.02185" lon="0.80047">
        <ele>144.5</ele>
        <time>2024-09-15T15:08:30.000Z</time>
      </trkpt>
      <trkpt lat="44.0217" lon="0.80008">
        <ele>148.9</ele>
        <time>2024-09-15T15:09:02.000Z</time>
      </trkpt>
      <trkpt lat="44.02137" lon="0.79931">
        <ele>154.1</ele>
        <time>2024-09-15T15:10:06.000Z</time>
      </trkpt>
      <trkpt lat="44.02114" lon="0.79889">
        <ele>155.5</ele>
        <time>2024-09-15T15:10:38.000Z</time>
      </trkpt>
      <trkpt lat="44.02105" lon="0.79863">
        <ele>156</ele>
        <time>2024-09-15T15:10:54.000Z</time>
      </trkpt>
      <trkpt lat="44.021" lon="0.79836">
        <ele>157.1</ele>
        <time>2024-09-15T15:11:10.000Z</time>
      </trkpt>
      <trkpt lat="44.02088" lon="0.79748">
        <ele>159.2</ele>
        <time>2024-09-15T15:12:06.000Z</time>
      </trkpt>
      <trkpt lat="44.02066" lon="0.79674">
        <ele>160.7</ele>
        <time>2024-09-15T15:13:10.000Z</time>
      </trkpt>
      <trkpt lat="44.02033" lon="0.79602">
        <ele>162.2</ele>
        <time>2024-09-15T15:15:02.000Z</time>
      </trkpt>
      <trkpt lat="44.0202" lon="0.79581">
        <ele>163.1</ele>
        <time>2024-09-15T15:15:18.000Z</time>
      </trkpt>
      <trkpt lat="44.02007" lon="0.79562">
        <ele>163.8</ele>
        <time>2024-09-15T15:15:34.000Z</time>
      </trkpt>
      <trkpt lat="44.01993" lon="0.79547">
        <ele>164.4</ele>
        <time>2024-09-15T15:15:50.000Z</time>
      </trkpt>
      <trkpt lat="44.01977" lon="0.79533">
        <ele>165.5</ele>
        <time>2024-09-15T15:16:06.000Z</time>
      </trkpt>
      <trkpt lat="44.01912" lon="0.79489">
        <ele>170.4</ele>
        <time>2024-09-15T15:17:10.000Z</time>
      </trkpt>
      <trkpt lat="44.0188" lon="0.79472">
        <ele>173.9</ele>
        <time>2024-09-15T15:17:42.000Z</time>
      </trkpt>
      <trkpt lat="44.0184" lon="0.7944">
        <ele>180.6</ele>
        <time>2024-09-15T15:24:54.000Z</time>
      </trkpt>
      <trkpt lat="44.0183" lon="0.79432">
        <ele>182.4</ele>
        <time>2024-09-15T15:25:26.000Z</time>
      </trkpt>
      <trkpt lat="44.01789" lon="0.79381">
        <ele>191.7</ele>
        <time>2024-09-15T15:26:30.000Z</time>
      </trkpt>
      <trkpt lat="44.01771" lon="0.79364">
        <ele>194.9</ele>
        <time>2024-09-15T15:26:54.000Z</time>
      </trkpt>
      <trkpt lat="44.01763" lon="0.7936">
        <ele>196.1</ele>
        <time>2024-09-15T15:27:02.000Z</time>
      </trkpt>
      <trkpt lat="44.01757" lon="0.7936">
        <ele>197.1</ele>
        <time>2024-09-15T15:27:10.000Z</time>
      </trkpt>
      <trkpt lat="44.01749" lon="0.79362">
        <ele>198.1</ele>
        <time>2024-09-15T15:27:18.000Z</time>
      </trkpt>
      <trkpt lat="44.01742" lon="0.79367">
        <ele>198.7</ele>
        <time>2024-09-15T15:27:26.000Z</time>
      </trkpt>
      <trkpt lat="44.01739" lon="0.79368">
        <ele>199.1</ele>
        <time>2024-09-15T15:27:30.000Z</time>
      </trkpt>
      <trkpt lat="44.01737" lon="0.79359">
        <ele>199.9</ele>
        <time>2024-09-15T15:27:46.000Z</time>
      </trkpt>
      <trkpt lat="44.01721" lon="0.79333">
        <ele>203</ele>
        <time>2024-09-15T15:28:10.000Z</time>
      </trkpt>
      <trkpt lat="44.01719" lon="0.79326">
        <ele>203.1</ele>
        <time>2024-09-15T15:28:18.000Z</time>
      </trkpt>
      <trkpt lat="44.01707" lon="0.79322">
        <ele>203.3</ele>
        <time>2024-09-15T15:28:34.000Z</time>
      </trkpt>
      <trkpt lat="44.01699" lon="0.79317">
        <ele>203.3</ele>
        <time>2024-09-15T15:28:50.000Z</time>
      </trkpt>
      <trkpt lat="44.01698" lon="0.79313">
        <ele>203.2</ele>
        <time>2024-09-15T15:28:54.000Z</time>
      </trkpt>
      <trkpt lat="44.01682" lon="0.79266">
        <ele>200.4</ele>
        <time>2024-09-15T15:29:27.000Z</time>
      </trkpt>
    </trkseg>
  </trk>
</gpx>